createdAt,value
2023-03-02T00:00:31.890Z,4.10
2023-03-02T00:03:03.254Z,4.50
2023-03-02T00:05:35.499Z,4.40
2023-03-02T00:08:06.973Z,5.00
2023-03-02T00:10:38.875Z,4.00
2023-03-02T00:13:09.678Z,5.10
2023-03-02T00:15:40.479Z,3.20
2023-03-02T00:18:11.503Z,4.20
2023-03-02T00:20:42.252Z,6.10
2023-03-02T00:23:13.855Z,3.70
2023-03-02T00:25:44.901Z,3.60
2023-03-02T00:28:15.636Z,4.40
2023-03-02T00:30:46.344Z,5.00
2023-03-02T00:33:17.318Z,4.00
2023-03-02T00:35:48.439Z,4.40
2023-03-02T00:38:19.526Z,4.50
2023-03-02T00:40:51.987Z,4.90
2023-03-02T00:43:27.415Z,4.10
2023-03-02T00:45:59.134Z,3.80
2023-03-02T00:48:29.831Z,4.30
2023-03-02T00:51:03.269Z,4.60
2023-03-02T00:53:34.464Z,3.80
2023-03-02T00:56:06.906Z,3.70
2023-03-02T00:58:38.284Z,5.30
2023-03-02T01:01:12.022Z,4.80
2023-03-02T01:03:43.156Z,3.10
2023-03-02T01:06:21.207Z,4.40
2023-03-02T01:08:54.111Z,3.50
2023-03-02T01:11:25.297Z,4.80
2023-03-02T01:13:56.008Z,3.40
2023-03-02T01:16:27.335Z,4.50
2023-03-02T01:18:58.187Z,4.30
2023-03-02T01:21:29.355Z,5.40
2023-03-02T01:24:00.004Z,3.40
2023-03-02T01:26:31.057Z,4.50
2023-03-02T01:29:02.166Z,5.20
2023-03-02T01:31:33.635Z,3.60
2023-03-02T01:34:04.502Z,4.20
2023-03-02T01:36:35.646Z,4.50
2023-03-02T01:39:06.591Z,4.10
2023-03-02T01:41:37.324Z,4.10
2023-03-02T01:44:11.104Z,4.70
2023-03-02T01:46:41.957Z,4.80
2023-03-02T01:49:16.420Z,3.40
2023-03-02T01:51:49.983Z,4.80
2023-03-02T01:54:24.015Z,3.40
2023-03-02T01:56:59.237Z,3.90
2023-03-02T01:59:32.872Z,4.40
2023-03-02T02:02:07.199Z,3.60
2023-03-02T02:04:41.322Z,5.00
2023-03-02T02:07:12.651Z,4.20
2023-03-02T02:09:48.061Z,5.00
2023-03-02T02:12:21.354Z,3.70
2023-03-02T02:14:52.738Z,4.40
2023-03-02T02:17:23.595Z,3.80
2023-03-02T02:20:07.205Z,4.30
2023-03-02T02:22:49.177Z,4.00
2023-03-02T02:25:34.158Z,3.90
2023-03-02T02:28:09.654Z,5.40
2023-03-02T02:30:43.356Z,3.60
2023-03-02T02:33:20.752Z,3.30
2023-03-02T02:35:54.056Z,5.10
2023-03-02T02:38:26.067Z,5.00
2023-03-02T02:40:59.656Z,4.40
2023-03-02T02:43:33.535Z,3.50
2023-03-02T02:46:05.051Z,4.90
2023-03-02T02:48:36.413Z,4.20
2023-03-02T02:51:10.400Z,4.80
2023-03-02T02:56:16.627Z,4.10
2023-03-02T02:58:51.787Z,5.30
2023-03-02T03:01:26.295Z,4.80
2023-03-02T03:04:02.067Z,5.00
2023-03-02T03:06:38.514Z,5.10
2023-03-02T03:09:10.868Z,4.70
2023-03-02T03:11:44.948Z,4.90
2023-03-02T03:14:17.613Z,5.20
2023-03-02T03:16:50.762Z,5.50
2023-03-02T03:19:24.350Z,4.10
2023-03-02T03:21:57.481Z,4.30
2023-03-02T03:24:29.858Z,4.50
2023-03-02T03:27:02.038Z,5.50
2023-03-02T03:29:34.281Z,4.90
2023-03-02T03:32:06.952Z,5.20
2023-03-02T03:34:41.054Z,4.10
2023-03-02T03:37:13.899Z,4.80
2023-03-02T03:39:45.549Z,5.20
2023-03-02T03:42:16.720Z,4.50
2023-03-02T03:44:47.664Z,4.20
2023-03-02T03:47:18.400Z,4.20
2023-03-02T03:49:49.350Z,4.80
2023-03-02T03:52:30.516Z,4.00
2023-03-02T03:55:02.796Z,4.80
2023-03-02T03:57:33.480Z,3.80
2023-03-02T04:00:06.306Z,4.50
2023-03-02T04:02:37.141Z,4.40
2023-03-02T04:05:09.343Z,4.20
2023-03-02T04:07:41.436Z,6.90
2023-03-02T04:10:14.287Z,5.10
2023-03-02T04:12:45.621Z,4.60
2023-03-02T04:15:18.710Z,3.80
2023-03-02T04:17:50.171Z,3.80
2023-03-02T04:20:22.724Z,4.20
2023-03-02T04:22:55.740Z,3.90
2023-03-02T04:25:29.558Z,4.80
2023-03-02T04:28:00.382Z,3.80
2023-03-02T04:30:33.331Z,4.30
2023-03-02T04:33:04.357Z,4.30
2023-03-02T04:35:35.109Z,4.20
2023-03-02T04:38:06.107Z,4.70
2023-03-02T04:40:36.946Z,4.70
2023-03-02T04:43:07.636Z,3.70
2023-03-02T04:45:38.443Z,5.20
2023-03-02T04:48:10.085Z,5.30
2023-03-02T04:50:41.043Z,5.20
2023-03-02T04:53:12.425Z,4.90
2023-03-02T04:55:43.534Z,13.70
2023-03-02T04:58:14.265Z,7.40
2023-03-02T05:00:45.145Z,4.30
2023-03-02T05:03:15.945Z,6.50
2023-03-02T05:05:46.657Z,4.70
2023-03-02T05:08:17.783Z,7.10
2023-03-02T05:10:48.816Z,5.50
2023-03-02T05:13:20.287Z,8.50
2023-03-02T05:15:51.859Z,5.20
2023-03-02T05:18:23.339Z,6.00
2023-03-02T05:20:54.753Z,6.90
2023-03-02T05:23:27.150Z,17.80
2023-03-02T05:25:58.913Z,9.80
2023-03-02T05:28:30.076Z,10.30
2023-03-02T05:31:01.266Z,25.30
2023-03-02T05:33:32.338Z,64.60
2023-03-02T05:36:03.152Z,56.80
2023-03-02T05:38:34.634Z,50.70
2023-03-02T05:41:06.391Z,56.80
2023-03-02T05:43:37.308Z,51.70
2023-03-02T05:46:08.153Z,49.30
2023-03-02T05:48:39.160Z,45.60
2023-03-02T05:51:10.512Z,48.10
2023-03-02T05:53:41.326Z,38.90
2023-03-02T05:56:12.470Z,43.70
2023-03-02T05:58:43.222Z,44.00
2023-03-02T06:01:15.583Z,35.40
2023-03-02T06:03:46.429Z,38.50
2023-03-02T06:06:18.092Z,38.30
2023-03-02T06:08:48.722Z,32.20
2023-03-02T06:11:19.507Z,34.90
2023-03-02T06:13:50.310Z,29.00
2023-03-02T06:16:21.110Z,29.60
2023-03-02T06:18:52.102Z,30.80
2023-03-02T06:21:22.832Z,27.60
2023-03-02T06:23:54.179Z,29.00
2023-03-02T06:26:25.106Z,26.50
2023-03-02T06:28:56.182Z,31.20
2023-03-02T06:31:27.336Z,27.20
2023-03-02T06:33:58.061Z,30.10
2023-03-02T06:36:29.409Z,29.30
2023-03-02T06:39:00.152Z,23.10
2023-03-02T06:41:31.167Z,21.20
2023-03-02T06:44:02.233Z,24.40
2023-03-02T06:46:33.242Z,19.10
2023-03-02T06:49:04.859Z,22.90
2023-03-02T06:51:36.585Z,21.80
2023-03-02T06:54:08.969Z,17.70
2023-03-02T06:56:41.075Z,20.40
2023-03-02T06:59:11.878Z,19.50
2023-03-02T07:01:43.223Z,19.90
2023-03-02T07:04:14.239Z,18.40
2023-03-02T07:06:44.989Z,21.90
2023-03-02T07:09:15.949Z,22.20
2023-03-02T07:11:49.455Z,18.00
2023-03-02T07:14:20.821Z,14.50
2023-03-02T07:16:52.279Z,18.30
2023-03-02T07:19:23.303Z,19.00
2023-03-02T07:21:53.961Z,15.50
2023-03-02T07:24:24.777Z,16.30
2023-03-02T07:26:55.360Z,13.00
2023-03-02T07:29:26.261Z,14.40
2023-03-02T07:31:57.515Z,18.00
2023-03-02T07:34:28.957Z,16.90
2023-03-02T07:36:59.691Z,13.10
2023-03-02T07:39:30.429Z,14.60
2023-03-02T07:42:04.516Z,14.70
2023-03-02T07:44:35.895Z,14.30
2023-03-02T07:47:06.839Z,18.30
2023-03-02T07:49:37.525Z,10.80
2023-03-02T07:52:08.623Z,12.40
2023-03-02T07:54:39.903Z,15.00
2023-03-02T07:57:11.022Z,16.30
2023-03-02T07:59:41.862Z,15.30
2023-03-02T08:02:16.472Z,15.20
2023-03-02T08:04:47.219Z,13.50
2023-03-02T08:07:18.176Z,12.80
2023-03-02T08:09:49.114Z,13.90
2023-03-02T08:12:19.805Z,14.20
2023-03-02T08:14:51.479Z,10.90
2023-03-02T08:17:22.347Z,13.00
2023-03-02T08:19:53.166Z,12.90
2023-03-02T08:22:24.433Z,14.10
2023-03-02T08:24:55.391Z,10.80
2023-03-02T08:27:26.286Z,13.20
2023-03-02T08:29:57.917Z,13.90
2023-03-02T08:32:30.017Z,11.20
2023-03-02T08:35:01.136Z,12.70
2023-03-02T08:37:31.867Z,10.20
2023-03-02T08:40:02.912Z,10.40
2023-03-02T08:42:34.121Z,11.30
2023-03-02T08:45:05.469Z,10.10
2023-03-02T08:47:36.468Z,10.90
2023-03-02T08:50:08.024Z,9.70
2023-03-02T08:52:38.699Z,11.30
2023-03-02T08:55:12.111Z,9.80
2023-03-02T08:57:43.219Z,10.60
2023-03-02T09:00:16.615Z,8.80
2023-03-02T09:02:47.396Z,10.80
2023-03-02T09:05:18.344Z,10.00
2023-03-02T09:07:49.275Z,9.20
2023-03-02T09:10:20.787Z,11.50
2023-03-02T09:12:52.590Z,9.20
2023-03-02T09:15:23.332Z,9.90
2023-03-02T09:17:54.272Z,10.60
2023-03-02T09:20:25.216Z,9.60
2023-03-02T09:22:56.174Z,7.60
2023-03-02T09:25:27.286Z,10.10
2023-03-02T09:27:58.044Z,8.80
2023-03-02T09:30:29.102Z,7.60
2023-03-02T09:33:00.244Z,9.30
2023-03-02T09:35:31.430Z,11.90
2023-03-02T09:38:02.403Z,8.60
2023-03-02T09:40:39.729Z,9.20
2023-03-02T09:43:29.851Z,10.00
2023-03-02T09:46:15.126Z,9.40
2023-03-02T09:48:56.117Z,7.30
2023-03-02T09:51:37.354Z,9.80
2023-03-02T09:54:13.154Z,9.30
2023-03-02T09:56:48.151Z,8.10
2023-03-02T09:59:25.765Z,10.40
2023-03-02T10:02:01.465Z,9.00
2023-03-02T10:04:38.852Z,8.80
2023-03-02T10:07:17.579Z,9.20
2023-03-02T10:09:48.848Z,8.70
2023-03-02T10:12:43.910Z,8.20
2023-03-02T10:15:20.674Z,9.10
2023-03-02T10:18:02.083Z,9.60
2023-03-02T10:20:38.113Z,10.30
2023-03-02T10:23:23.085Z,9.40
2023-03-02T10:26:01.149Z,8.70
2023-03-02T10:28:39.839Z,8.00
2023-03-02T10:31:15.537Z,8.30
2023-03-02T10:33:46.283Z,7.70
2023-03-02T10:36:24.037Z,9.80
2023-03-02T10:38:56.626Z,8.40
2023-03-02T10:41:32.685Z,9.70
2023-03-02T10:44:07.571Z,10.50
2023-03-02T10:46:46.353Z,8.60
2023-03-02T10:49:30.718Z,10.00
2023-03-02T10:52:04.782Z,8.70
2023-03-02T10:57:21.024Z,7.80
2023-03-02T10:59:53.325Z,9.00
2023-03-02T11:02:27.237Z,9.40
2023-03-02T11:05:00.043Z,8.20
2023-03-02T11:07:31.664Z,9.60
2023-03-02T11:10:09.558Z,8.20
2023-03-02T11:12:46.599Z,8.50
2023-03-02T11:15:42.217Z,8.50
2023-03-02T11:18:28.853Z,8.20
2023-03-02T11:21:03.334Z,7.70
2023-03-02T11:23:42.291Z,9.20
2023-03-02T11:26:22.196Z,7.50
2023-03-02T11:29:01.863Z,6.20
2023-03-02T11:31:40.428Z,7.50
2023-03-02T11:34:23.707Z,7.90
2023-03-02T11:37:03.466Z,7.80
2023-03-02T11:39:50.030Z,7.30
2023-03-02T11:42:31.339Z,9.20
2023-03-02T11:45:09.994Z,8.30
2023-03-02T11:47:43.259Z,7.60
2023-03-02T11:50:17.423Z,6.40
2023-03-02T11:52:52.817Z,9.80
2023-03-02T11:55:26.263Z,8.80
2023-03-02T12:00:40.288Z,7.60
2023-03-02T12:03:24.784Z,6.50
2023-03-02T12:06:07.460Z,6.70
2023-03-02T12:08:41.952Z,7.70
2023-03-02T12:11:34.842Z,7.30
2023-03-02T12:14:07.701Z,6.70
2023-03-02T12:16:41.330Z,7.20
2023-03-02T12:19:26.459Z,8.60
2023-03-02T12:22:05.413Z,6.90
2023-03-02T12:24:38.502Z,8.50
2023-03-02T12:27:25.738Z,8.90
2023-03-02T12:30:11.060Z,9.00
2023-03-02T12:32:42.048Z,15.10
2023-03-02T12:35:17.059Z,18.90
2023-03-02T12:37:51.948Z,18.80
2023-03-02T12:40:41.480Z,19.10
2023-03-02T12:43:36.069Z,21.80
2023-03-02T12:46:28.981Z,19.80
2023-03-02T12:49:27.233Z,21.90
2023-03-02T12:52:00.399Z,24.40
2023-03-02T12:54:33.608Z,26.90
2023-03-02T12:57:15.537Z,25.20
2023-03-02T12:59:52.101Z,24.50
2023-03-02T13:02:24.799Z,23.50
2023-03-02T13:05:00.664Z,26.10
2023-03-02T13:07:36.704Z,25.40
2023-03-02T13:10:21.878Z,26.20
2023-03-02T13:12:52.709Z,25.60
2023-03-02T13:15:23.654Z,26.80
2023-03-02T13:17:59.207Z,23.00
2023-03-02T13:20:31.263Z,24.90
2023-03-02T13:23:02.412Z,24.50
2023-03-02T13:25:33.960Z,25.20
2023-03-02T13:28:07.692Z,26.10
2023-03-02T13:30:47.756Z,23.90
2023-03-02T13:33:24.929Z,24.20
2023-03-02T13:35:56.478Z,23.30
2023-03-02T13:38:32.511Z,25.60
2023-03-02T13:41:04.043Z,23.20
2023-03-02T13:43:39.103Z,23.80
2023-03-02T13:46:29.356Z,23.60
2023-03-02T13:49:11.031Z,24.70
2023-03-02T13:51:43.982Z,22.70
2023-03-02T13:54:23.624Z,24.00
2023-03-02T13:56:55.172Z,25.40
2023-03-02T13:59:26.508Z,24.10
2023-03-02T14:01:57.264Z,21.50
2023-03-02T14:04:28.384Z,22.80
2023-03-02T14:06:59.252Z,23.70
2023-03-02T14:09:30.164Z,23.90
2023-03-02T14:12:01.435Z,23.40
2023-03-02T14:14:37.125Z,23.10
2023-03-02T14:17:16.730Z,25.60
2023-03-02T14:19:52.601Z,22.30
2023-03-02T14:22:24.866Z,24.10
2023-03-02T14:24:55.904Z,23.20
2023-03-02T14:27:30.673Z,20.80
2023-03-02T14:30:02.103Z,21.00
2023-03-02T14:32:32.936Z,22.60
2023-03-02T14:35:04.132Z,21.30
2023-03-02T14:37:35.133Z,24.10
2023-03-02T14:40:07.860Z,23.00
2023-03-02T14:42:38.528Z,20.00
2023-03-02T14:45:13.424Z,19.90
2023-03-02T14:47:44.402Z,21.20
2023-03-02T14:50:16.554Z,20.30
2023-03-02T14:52:49.739Z,21.70
2023-03-02T14:55:26.413Z,19.50
2023-03-02T14:58:00.173Z,20.60
2023-03-02T15:00:31.316Z,19.70
2023-03-02T15:03:02.590Z,18.30
2023-03-02T15:05:33.690Z,20.20
2023-03-02T15:08:04.745Z,19.40
2023-03-02T15:10:35.790Z,20.60
2023-03-02T15:13:06.936Z,21.70
2023-03-02T15:15:37.850Z,39.10
2023-03-02T15:18:09.147Z,38.50
2023-03-02T15:20:40.694Z,35.40
2023-03-02T15:23:11.650Z,41.60
2023-03-02T15:25:43.191Z,31.80
2023-03-02T15:28:14.019Z,29.00
2023-03-02T15:30:45.167Z,27.70
2023-03-02T15:33:16.212Z,26.60
2023-03-02T15:35:47.055Z,31.30
2023-03-02T15:38:18.124Z,25.30
2023-03-02T15:40:49.187Z,23.50
2023-03-02T15:43:20.091Z,22.80
2023-03-02T15:45:51.273Z,29.10
2023-03-02T15:48:22.373Z,21.20
2023-03-02T15:51:00.624Z,24.30
2023-03-02T15:53:36.712Z,22.90
2023-03-02T15:56:10.379Z,21.00
2023-03-02T15:58:41.614Z,23.40
2023-03-02T16:01:15.982Z,23.30
2023-03-02T16:03:47.159Z,25.00
2023-03-02T16:06:18.003Z,21.30
2023-03-02T16:08:49.165Z,19.30
2023-03-02T16:11:23.444Z,19.80
2023-03-02T16:13:54.671Z,22.90
2023-03-02T16:16:26.445Z,20.90
2023-03-02T16:18:58.410Z,17.10
2023-03-02T16:21:29.901Z,17.80
2023-03-02T16:24:04.027Z,19.50
2023-03-02T16:26:36.570Z,18.80
2023-03-02T16:29:09.182Z,16.80
2023-03-02T16:31:40.904Z,17.10
2023-03-02T16:34:12.336Z,17.60
2023-03-02T16:36:44.574Z,15.80
2023-03-02T16:39:15.887Z,17.80
2023-03-02T16:41:47.197Z,13.70
2023-03-02T16:44:18.105Z,17.80
2023-03-02T16:46:49.101Z,15.80
2023-03-02T16:49:19.912Z,17.50
2023-03-02T16:51:50.792Z,16.70
2023-03-02T16:54:22.076Z,15.10
2023-03-02T16:56:53.069Z,13.90
2023-03-02T16:59:24.099Z,13.10
2023-03-02T17:01:55.994Z,15.20
2023-03-02T17:04:26.846Z,19.90
2023-03-02T17:07:00.852Z,15.80
2023-03-02T17:09:32.529Z,13.30
2023-03-02T17:12:03.674Z,13.40
2023-03-02T17:14:34.943Z,14.70
2023-03-02T17:17:05.994Z,13.50
2023-03-02T17:19:37.248Z,14.20
2023-03-02T17:22:08.415Z,12.70
2023-03-02T17:24:39.692Z,11.00
2023-03-02T17:27:24.044Z,13.20
2023-03-02T17:29:56.769Z,12.80
2023-03-02T17:32:27.846Z,12.20
2023-03-02T17:34:59.389Z,15.10
2023-03-02T17:37:30.752Z,14.60
2023-03-02T17:40:01.775Z,12.90
2023-03-02T17:42:33.253Z,11.50
2023-03-02T17:45:04.452Z,11.50
2023-03-02T17:47:35.818Z,12.70
2023-03-02T17:50:10.255Z,11.40
2023-03-02T17:52:41.489Z,12.30
2023-03-02T17:55:14.160Z,11.00
2023-03-02T17:57:45.277Z,11.00
2023-03-02T18:00:21.617Z,11.40
2023-03-02T18:02:54.118Z,14.00
2023-03-02T18:05:26.142Z,12.00
2023-03-02T18:07:57.902Z,9.80
2023-03-02T18:10:30.858Z,11.50
2023-03-02T18:13:03.051Z,11.00
2023-03-02T18:15:34.818Z,10.80
2023-03-02T18:18:06.518Z,10.50
2023-03-02T18:20:38.381Z,12.40
2023-03-02T18:23:10.432Z,14.10
2023-03-02T18:25:41.819Z,13.00
2023-03-02T18:28:13.628Z,9.90
2023-03-02T18:30:45.794Z,10.50
2023-03-02T18:33:16.920Z,11.80
2023-03-02T18:35:48.481Z,11.10
2023-03-02T18:38:19.848Z,9.70
2023-03-02T18:40:51.319Z,10.10
2023-03-02T18:43:23.200Z,10.90
2023-03-02T18:45:57.498Z,12.00
2023-03-02T18:48:28.925Z,9.60
2023-03-02T18:51:01.843Z,10.40
2023-03-02T18:53:33.234Z,11.00
2023-03-02T18:56:05.492Z,9.40
2023-03-02T18:58:37.078Z,11.20
2023-03-02T19:01:09.933Z,9.50
2023-03-02T19:03:46.148Z,8.50
2023-03-02T19:06:20.842Z,10.40
2023-03-02T19:08:53.241Z,9.70
2023-03-02T19:11:26.007Z,8.30
2023-03-02T19:13:59.047Z,8.20
2023-03-02T19:16:31.302Z,8.60
2023-03-02T19:19:03.564Z,9.20
2023-03-02T19:21:35.859Z,10.90
2023-03-02T19:24:08.182Z,9.80
2023-03-02T19:26:39.225Z,8.30
2023-03-02T19:29:10.396Z,9.30
2023-03-02T19:31:42.410Z,10.30
2023-03-02T19:34:13.531Z,9.20
2023-03-02T19:36:44.765Z,8.40
2023-03-02T19:39:15.855Z,10.30
2023-03-02T19:41:46.911Z,9.40
2023-03-02T19:44:18.032Z,9.40
2023-03-02T19:46:50.009Z,9.90
2023-03-02T19:49:20.883Z,9.30
2023-03-02T19:51:52.390Z,8.60
2023-03-02T19:54:23.427Z,8.60
2023-03-02T19:56:54.597Z,9.30
2023-03-02T19:59:28.035Z,8.50
2023-03-02T20:01:59.641Z,10.40
2023-03-02T20:04:30.681Z,7.30
2023-03-02T20:07:02.927Z,8.80
2023-03-02T20:09:34.004Z,8.40
2023-03-02T20:12:06.197Z,8.20
2023-03-02T20:14:38.705Z,9.20
2023-03-02T20:17:09.891Z,9.00
2023-03-02T20:19:40.851Z,9.90
2023-03-02T20:22:12.325Z,8.20
2023-03-02T20:24:44.154Z,10.10
2023-03-02T20:27:15.517Z,7.30
2023-03-02T20:29:46.840Z,8.30
2023-03-02T20:32:18.621Z,8.20
2023-03-02T20:34:49.522Z,8.70
2023-03-02T20:37:22.657Z,7.20
2023-03-02T20:39:53.726Z,8.30
2023-03-02T20:42:25.005Z,7.60
2023-03-02T20:44:57.167Z,7.90
2023-03-02T20:47:28.270Z,7.20
2023-03-02T20:49:59.994Z,8.50
2023-03-02T20:52:31.106Z,8.30
2023-03-02T20:55:02.122Z,8.10
2023-03-02T20:57:33.291Z,5.80
2023-03-02T21:00:05.808Z,7.50
2023-03-02T21:02:37.121Z,7.40
2023-03-02T21:05:09.036Z,8.40
2023-03-02T21:07:39.908Z,6.30
2023-03-02T21:10:15.924Z,7.30
2023-03-02T21:12:49.141Z,8.80
2023-03-02T21:15:23.936Z,7.50
2023-03-02T21:17:55.240Z,6.30
2023-03-02T21:20:28.982Z,7.10
2023-03-02T21:23:00.643Z,7.50
2023-03-02T21:25:31.773Z,7.50
2023-03-02T21:28:03.099Z,6.30
2023-03-02T21:30:35.977Z,9.40
2023-03-02T21:33:07.385Z,9.60
2023-03-02T21:35:38.324Z,8.10
2023-03-02T21:38:09.755Z,8.00
2023-03-02T21:40:46.073Z,8.10
2023-03-02T21:43:18.549Z,6.70
2023-03-02T21:45:49.620Z,6.40
2023-03-02T21:48:22.946Z,8.00
2023-03-02T21:50:54.492Z,6.30
2023-03-02T21:53:25.411Z,5.80
2023-03-02T21:55:56.269Z,7.70
2023-03-02T21:58:27.310Z,7.20
2023-03-02T22:00:58.238Z,6.00
2023-03-02T22:03:29.305Z,6.70
2023-03-02T22:06:00.227Z,7.00
2023-03-02T22:08:31.627Z,11.70
2023-03-02T22:11:02.628Z,9.10
2023-03-02T22:13:35.539Z,8.70
2023-03-02T22:16:15.516Z,8.30
2023-03-02T22:18:47.575Z,7.00
2023-03-02T22:21:28.925Z,6.50
2023-03-02T22:24:10.992Z,8.70
2023-03-02T22:26:44.197Z,7.00
2023-03-02T22:29:19.046Z,6.70
2023-03-02T22:31:51.879Z,7.20
2023-03-02T22:34:27.076Z,6.20
2023-03-02T22:37:03.886Z,8.00
2023-03-02T22:39:36.060Z,5.80
2023-03-02T22:42:14.393Z,6.20
2023-03-02T22:44:45.410Z,6.60
2023-03-02T22:47:19.406Z,8.50
2023-03-02T22:49:58.304Z,7.70
2023-03-02T22:52:39.448Z,6.80
2023-03-02T22:55:32.100Z,8.10
2023-03-02T22:58:17.412Z,7.20
2023-03-02T23:00:49.125Z,7.60
2023-03-02T23:03:21.911Z,8.20
2023-03-02T23:05:54.101Z,7.00
2023-03-02T23:08:28.281Z,8.00
2023-03-02T23:11:00.519Z,8.20
2023-03-02T23:13:40.449Z,6.10
2023-03-02T23:18:48.003Z,6.20
2023-03-02T23:21:28.560Z,6.60
2023-03-02T23:23:59.427Z,6.40
2023-03-02T23:26:30.270Z,6.70
2023-03-02T23:29:01.306Z,6.80
2023-03-02T23:31:32.591Z,7.50
2023-03-02T23:34:03.948Z,6.70
2023-03-02T23:36:34.968Z,7.40
2023-03-02T23:39:06.067Z,7.50
2023-03-02T23:41:38.633Z,6.50
2023-03-02T23:44:10.467Z,7.30
2023-03-02T23:46:41.132Z,7.20
2023-03-02T23:49:11.874Z,6.90
2023-03-02T23:51:43.643Z,6.30
2023-03-02T23:54:14.956Z,7.70
2023-03-02T23:56:45.928Z,7.90
2023-03-02T23:59:16.769Z,7.00
